Time;durP1;ratioP1;P1;durP2;ratioP2;P2;SDS_P1;SDS_P2;PMS_P1;PMS_P2;Temp;Humidity;BMP_temperature;BMP_pressure;BME280_temperature;BME280_humidity;BME280_pressure;Samples;Min_cycle;Max_cycle;Signal;HPM_P1;HPM_P2
2023/02/27 00:00:01;;;;;;;6.43;2.80;;;;;;;-0.69;100.00;101399.59;5054134;28;20033;-72
2023/02/27 00:02:26;;;;;;;5.88;2.70;;;;;;;-0.70;100.00;101393.28;5034507;28;20654;-72
2023/02/27 00:04:53;;;;;;;7.03;2.53;;;;;;;-0.63;100.00;101406.13;4985213;28;20492;-72
2023/02/27 00:07:19;;;;;;;6.63;2.78;;;;;;;-0.66;100.00;101403.81;5031039;28;20026;-72
2023/02/27 00:09:44;;;;;;;4.65;2.47;;;;;;;-0.68;100.00;101407.56;5010717;28;20027;-72
2023/02/27 00:12:10;;;;;;;13.75;3.05;;;;;;;-0.68;100.00;101401.25;5053956;28;20079;-72
2023/02/27 00:14:36;;;;;;;6.38;2.47;;;;;;;-0.68;100.00;101404.84;5033245;28;20490;-72
2023/02/27 00:17:01;;;;;;;5.93;2.85;;;;;;;-0.66;100.00;101401.91;5017748;28;20056;-72
2023/02/27 00:19:27;;;;;;;9.10;2.78;;;;;;;-0.65;100.00;101405.47;5017551;28;20025;-72
2023/02/27 00:21:52;;;;;;;7.72;2.78;;;;;;;-0.73;100.00;101398.28;5016381;28;20033;-72
2023/02/27 00:24:18;;;;;;;7.55;2.60;;;;;;;-0.70;100.00;101396.03;5000797;28;20463;-73
2023/02/27 00:26:43;;;;;;;11.75;2.95;;;;;;;-0.71;100.00;101394.31;5047471;28;20033;-72
2023/02/27 00:29:09;;;;;;;6.95;2.30;;;;;;;-0.73;100.00;101403.75;5017277;28;20025;-72
2023/02/27 00:31:34;;;;;;;6.15;2.60;;;;;;;-0.75;100.00;101406.69;5006409;28;20038;-72
2023/02/27 00:34:00;;;;;;;7.72;3.15;;;;;;;-0.72;100.00;101402.72;5017420;28;20507;-72
2023/02/27 00:36:25;;;;;;;5.88;2.60;;;;;;;-0.74;100.00;101415.69;5034839;28;20056;-72
2023/02/27 00:38:51;;;;;;;6.50;2.72;;;;;;;-0.79;100.00;101402.66;5026159;28;20026;-72
2023/02/27 00:41:16;;;;;;;6.43;3.25;;;;;;;-0.78;100.00;101406.22;5046808;28;20045;-72
2023/02/27 00:43:42;;;;;;;6.70;2.67;;;;;;;-0.77;100.00;101403.28;5008119;28;20040;-72
2023/02/27 00:46:08;;;;;;;6.00;3.17;;;;;;;-0.83;100.00;101398.63;5046797;28;20030;-72
2023/02/27 00:48:33;;;;;;;8.40;2.55;;;;;;;-0.73;100.00;101404.56;5024797;28;20517;-72
2023/02/27 00:50:59;;;;;;;7.22;3.30;;;;;;;-0.78;100.00;101407.06;5030301;28;20029;-72
2023/02/27 00:53:24;;;;;;;11.40;2.95;;;;;;;-0.81;100.00;101402.00;5045141;28;20064;-72
2023/02/27 00:55:49;;;;;;;8.20;2.92;;;;;;;-0.81;100.00;101404.72;5015900;28;20026;-72
2023/02/27 00:58:15;;;;;;;7.55;2.90;;;;;;;-0.82;100.00;101392.13;5028075;28;20033;-72
2023/02/27 01:00:41;;;;;;;7.00;3.17;;;;;;;-0.78;100.00;101401.63;5032109;28;20498;-72
2023/02/27 01:03:06;;;;;;;6.47;2.88;;;;;;;-0.77;100.00;101399.72;5044895;28;20069;-72
2023/02/27 01:05:32;;;;;;;8.30;2.65;;;;;;;-0.76;100.00;101402.25;5017499;28;20029;-72
2023/02/27 01:07:57;;;;;;;7.97;2.80;;;;;;;-0.78;100.00;101401.63;5032244;28;20087;-72
2023/02/27 01:10:22;;;;;;;5.18;2.33;;;;;;;-0.73;100.00;101399.13;5020291;28;20028;-72
2023/02/27 01:12:48;;;;;;;7.65;2.95;;;;;;;-0.75;100.00;101403.94;5028693;28;20061;-72
2023/02/27 01:15:13;;;;;;;8.57;3.05;;;;;;;-0.78;100.00;101393.44;5037259;28;20029;-72
2023/02/27 01:17:39;;;;;;;8.82;2.90;;;;;;;-0.75;100.00;101403.94;5010777;28;20479;-72
2023/02/27 01:20:05;;;;;;;7.50;2.50;;;;;;;-0.77;100.00;101397.84;5033892;28;20029;-72
2023/02/27 01:22:32;;;;;;;5.88;2.67;;;;;;;-0.78;100.00;101407.06;5037117;28;20037;-72
2023/02/27 01:24:58;;;;;;;6.68;2.80;;;;;;;-0.82;100.00;101402.19;5034098;28;20021;-72
2023/02/27 01:27:23;;;;;;;6.07;2.50;;;;;;;-0.81;100.00;101404.72;5023459;28;20037;-72
2023/02/27 01:29:49;;;;;;;5.82;3.15;;;;;;;-0.80;100.00;101411.03;5033547;28;20513;-72
2023/02/27 01:32:14;;;;;;;4.43;2.45;;;;;;;-0.83;100.00;101411.44;5036807;28;20025;-72
2023/02/27 01:34:40;;;;;;;8.40;2.92;;;;;;;-0.82;100.00;101410.38;5052806;28;20548;-72
2023/02/27 01:37:05;;;;;;;8.18;2.70;;;;;;;-0.84;100.00;101407.84;5027706;28;20037;-72
2023/02/27 01:39:31;;;;;;;5.40;2.50;;;;;;;-0.86;100.00;101399.03;5025719;28;20029;-72
2023/02/27 01:41:57;;;;;;;10.05;2.47;;;;;;;-0.85;100.00;101403.44;5026277;28;20029;-72
2023/02/27 01:44:25;;;;;;;5.50;2.45;;;;;;;-0.87;100.00;101391.88;5020068;28;20018;-72
2023/02/27 01:46:50;;;;;;;7.53;2.30;;;;;;;-0.88;100.00;101387.47;5003902;28;20025;-72
2023/02/27 01:49:23;;;;;;;5.25;2.55;;;;;;;-0.94;100.00;101389.09;5036594;28;20379;-72
2023/02/27 01:52:00;;;;;;;5.30;2.53;;;;;;;-0.94;100.00;101388.25;5036672;28;20663;-72
2023/02/27 01:54:26;;;;;;;10.20;2.67;;;;;;;-0.91;100.00;101396.88;5036984;28;20602;-72
2023/02/27 01:56:51;;;;;;;10.02;2.72;;;;;;;-0.88;100.00;101394.81;5014612;28;20096;-72
2023/02/27 01:59:17;;;;;;;7.38;2.90;;;;;;;-0.96;100.00;101393.91;5032866;28;20030;-72
2023/02/27 02:01:42;;;;;;;8.77;2.67;;;;;;;-0.91;100.00;101396.88;4987263;28;20048;-72
2023/02/27 02:04:28;;;;;;;6.05;2.50;;;;;;;-0.98;100.00;101395.13;5003933;28;20022;-72
2023/02/27 02:07:06;;;;;;;6.45;2.22;;;;;;;-0.95;100.00;101394.75;5036226;28;20029;-72
2023/02/27 02:09:33;;;;;;;9.95;3.13;;;;;;;-0.95;100.00;101394.75;5019843;28;20026;-72
2023/02/27 02:11:59;;;;;;;7.18;2.95;;;;;;;-1.01;100.00;101385.47;5033175;28;20029;-72
2023/02/27 02:14:24;;;;;;;8.85;2.50;;;;;;;-0.96;100.00;101390.34;4987820;28;20076;-71
2023/02/27 02:16:54;;;;;;;7.05;2.47;;;;;;;-1.07;100.00;101391.72;5002545;28;20432;-72
2023/02/27 02:19:48;;;;;;;5.93;2.60;;;;;;;-0.99;100.00;101388.00;5045661;28;20026;-72
2023/02/27 02:22:38;;;;;;;9.07;2.88;;;;;;;-1.02;100.00;101389.25;5043770;28;20515;-71
2023/02/27 02:25:22;;;;;;;6.68;2.47;;;;;;;-1.01;100.00;101384.63;5049043;28;20021;-72
2023/02/27 02:28:09;;;;;;;9.10;2.92;;;;;;;-0.96;100.00;101387.63;5046410;28;20056;-72
2023/02/27 02:31:29;;;;;;;6.03;2.83;;;;;;;-1.02;100.00;101394.69;5027138;28;20034;-72
2023/02/27 02:34:31;;;;;;;5.72;2.92;;;;;;;-0.96;100.00;101384.88;5011922;28;20527;-72
2023/02/27 02:37:30;;;;;;;6.90;2.60;;;;;;;-0.99;100.00;101377.09;5023576;28;20056;-72
2023/02/27 02:40:18;;;;;;;8.63;2.50;;;;;;;-0.97;100.00;101375.03;5032154;28;20525;-72
2023/02/27 02:42:48;;;;;;;8.20;2.88;;;;;;;-0.96;100.00;101379.44;5004262;28;20045;-72
2023/02/27 02:45:23;;;;;;;5.75;2.53;;;;;;;-0.95;100.00;101383.84;4992813;28;20029;-72
2023/02/27 02:47:59;;;;;;;10.23;3.33;;;;;;;-0.94;100.00;101371.91;5014970;28;20390;-72
2023/02/27 02:50:46;;;;;;;6.30;2.58;;;;;;;-0.91;100.00;101380.53;5028416;28;20034;-72
2023/02/27 02:53:48;;;;;;;7.40;2.67;;;;;;;-0.91;100.00;101376.97;5020234;28;20067;-72
2023/02/27 02:56:21;;;;;;;11.43;3.05;;;;;;;-0.92;100.00;101372.53;5022463;28;20052;-72
2023/02/27 02:59:07;;;;;;;9.10;2.58;;;;;;;-0.92;100.00;101372.53;5033209;28;20584;-72
2023/02/27 03:01:45;;;;;;;12.52;3.05;;;;;;;-0.94;100.00;101366.44;5024842;28;20073;-72
2023/02/27 03:04:21;;;;;;;8.40;2.55;;;;;;;-0.95;100.00;101362.00;4968754;28;20445;-72
2023/02/27 03:06:51;;;;;;;6.15;2.80;;;;;;;-0.92;100.00;101365.22;5014250;28;20048;-72
2023/02/27 03:09:24;;;;;;;7.45;2.58;;;;;;;-0.95;100.00;101356.56;5002402;28;20033;-73
2023/02/27 03:11:50;;;;;;;6.72;2.22;;;;;;;-0.94;100.00;101347.38;4986273;28;20026;-72
2023/02/27 03:14:27;;;;;;;5.25;2.30;;;;;;;-0.97;100.00;101347.75;5012570;28;20082;-71
2023/02/27 03:16:53;;;;;;;11.35;2.45;;;;;;;-0.98;100.00;101349.63;5022061;28;20032;-72
2023/02/27 03:19:26;;;;;;;7.20;2.65;;;;;;;-0.99;100.00;101347.94;5020324;28;20030;-72
2023/02/27 03:21:59;;;;;;;6.82;2.80;;;;;;;-0.94;100.00;101333.72;5033331;28;20037;-72
2023/02/27 03:24:32;;;;;;;;;;;;;;;-0.94;100.00;101336.47;5047494;28;20029;-72
2023/02/27 03:27:01;;;;;;;8.55;2.55;;;;;;;-0.97;100.00;101331.41;5035205;28;19944;-72
2023/02/27 03:29:42;;;;;;;5.93;2.30;;;;;;;-0.94;100.00;101325.53;5018429;28;20545;-72
2023/02/27 03:32:15;;;;;;;5.30;2.17;;;;;;;-0.97;100.00;101320.50;5008001;28;20037;-72
2023/02/27 03:34:40;;;;;;;6.13;2.42;;;;;;;-0.98;100.00;101329.69;5032201;28;20049;-72
2023/02/27 03:37:11;;;;;;;5.88;2.40;;;;;;;-1.03;100.00;101324.00;5018062;28;20037;-72
2023/02/27 03:39:46;;;;;;;5.82;2.25;;;;;;;-1.00;100.00;101329.06;5031720;28;20079;-72
2023/02/27 03:42:20;;;;;;;6.97;2.75;;;;;;;-1.03;100.00;101327.59;5024030;28;20026;-72
2023/02/27 03:44:54;;;;;;;5.30;2.10;;;;;;;-1.01;100.00;101324.63;5021516;28;20057;-72
2023/02/27 03:47:20;;;;;;;6.53;2.25;;;;;;;-1.02;100.00;101328.41;5047678;28;20032;-72
2023/02/27 03:49:45;;;;;;;7.13;1.85;;;;;;;-1.05;100.00;101339.72;5005956;28;20092;-72
2023/02/27 03:52:11;;;;;;;6.38;2.30;;;;;;;-1.07;100.00;101339.91;5048395;28;20051;-72
2023/02/27 03:54:39;;;;;;;10.30;2.63;;;;;;;-1.08;100.00;101338.22;5013420;28;20036;-72
2023/02/27 03:57:06;;;;;;;7.18;3.55;;;;;;;-1.02;100.00;101342.06;4985444;28;20041;-72
2023/02/27 03:59:31;;;;;;;6.55;2.20;;;;;;;-1.05;100.00;101332.38;5017903;28;20068;-72
2023/02/27 04:01:57;;;;;;;8.45;2.28;;;;;;;-1.09;100.00;101335.69;5017750;28;20033;-72
2023/02/27 04:04:22;;;;;;;7.53;2.20;;;;;;;-1.09;100.00;101341.13;5006934;28;20681;-71
2023/02/27 04:10:08;;;;;;;4.97;2.13;;;;;;;-1.06;100.00;101333.41;5020054;28;20037;-72
2023/02/27 04:12:39;;;;;;;10.10;2.70;;;;;;;-1.18;100.00;101335.81;5009006;28;20044;-72
2023/02/27 04:15:23;;;;;;;6.07;2.40;;;;;;;-1.13;100.00;101333.34;5036570;28;20044;-72
2023/02/27 04:18:14;;;;;;;2.72;1.80;;;;;;;-1.08;100.00;101334.66;5043169;28;20440;-72
2023/02/27 04:20:45;;;;;;;5.25;2.38;;;;;;;-1.09;100.00;101330.22;5028256;28;20021;-72
2023/02/27 04:23:17;;;;;;;5.80;2.00;;;;;;;-1.12;100.00;101334.19;5020079;28;20025;-72
2023/02/27 04:25:59;;;;;;;5.97;2.17;;;;;;;-1.16;100.00;101331.03;5011010;28;20490;-72
2023/02/27 04:28:37;;;;;;;4.07;2.03;;;;;;;-1.16;100.00;101325.56;5035213;28;20025;-72
2023/02/27 04:31:26;;;;;;;5.45;2.15;;;;;;;-1.16;100.00;101328.31;5021282;28;20067;-72
2023/02/27 04:34:10;;;;;;;6.57;2.15;;;;;;;-1.16;100.00;101322.00;5026187;28;20039;-72
2023/02/27 04:36:41;;;;;;;8.52;2.15;;;;;;;-1.19;100.00;101317.78;5053714;28;20123;-72
2023/02/27 04:39:09;;;;;;;5.80;2.25;;;;;;;-1.19;100.00;101320.53;5014529;28;20120;-72
2023/02/27 04:41:39;;;;;;;4.45;2.47;;;;;;;-1.16;100.00;101322.84;5014926;28;20046;-72
2023/02/27 04:44:05;;;;;;;4.97;1.80;;;;;;;-1.21;100.00;101319.03;5037009;28;20029;-72
2023/02/27 04:46:31;;;;;;;4.93;2.03;;;;;;;-1.26;100.00;101321.50;5041358;28;20029;-71
2023/02/27 04:49:11;;;;;;;6.40;1.88;;;;;;;-1.28;100.00;101313.53;5009048;28;20056;-73
2023/02/27 04:52:00;;;;;;;5.97;1.80;;;;;;;-1.29;100.00;101325.44;5013537;28;20038;-72
2023/02/27 04:54:35;;;;;;;3.88;1.67;;;;;;;-1.35;100.00;101321.63;5008581;28;20037;-72
2023/02/27 04:57:03;;;;;;;4.80;1.70;;;;;;;-1.32;100.00;101325.00;5021414;28;20408;-72
2023/02/27 04:59:31;;;;;;;5.97;1.60;;;;;;;-1.41;100.00;101319.69;5021462;28;20026;-72
2023/02/27 05:02:18;;;;;;;7.43;2.00;;;;;;;-1.41;100.00;101324.31;5004757;28;20036;-72
2023/02/27 05:04:44;;;;;;;6.00;1.60;;;;;;;-1.42;100.00;101322.59;5004942;28;20108;-73
2023/02/27 05:07:12;;;;;;;6.82;2.10;;;;;;;-1.38;100.00;101330.19;5019976;28;20088;-72
2023/02/27 05:09:42;;;;;;;3.35;1.90;;;;;;;-1.40;100.00;101329.53;5033312;28;20382;-72
2023/02/27 05:12:13;;;;;;;3.38;1.80;;;;;;;-1.42;100.00;101334.38;5040382;28;20456;-72
2023/02/27 05:14:41;;;;;;;4.13;1.90;;;;;;;-1.40;100.00;101342.34;5045975;28;20167;-71
2023/02/27 05:17:09;;;;;;;6.50;2.08;;;;;;;-1.48;100.00;101339.72;5004926;28;20038;-72
2023/02/27 05:19:36;;;;;;;3.42;1.73;;;;;;;-1.50;100.00;101339.94;5021133;28;20378;-72
2023/02/27 05:22:14;;;;;;;4.57;2.20;;;;;;;-1.43;100.00;101345.44;5039466;28;20090;-72
2023/02/27 05:24:52;;;;;;;5.35;2.05;;;;;;;-1.51;100.00;101338.25;5036730;28;20044;-72
2023/02/27 05:27:48;;;;;;;5.38;1.75;;;;;;;-1.49;100.00;101338.06;4988492;28;20025;-72
2023/02/27 05:30:16;;;;;;;6.60;2.05;;;;;;;-1.52;100.00;101346.63;5048287;28;20048;-72
2023/02/27 05:32:54;;;;;;;7.55;1.83;;;;;;;-1.50;100.00;101352.72;5038177;28;20056;-71
2023/02/27 05:35:29;;;;;;;5.55;1.90;;;;;;;-1.52;100.00;101360.25;5030966;28;20549;-72
2023/02/27 05:37:59;;;;;;;5.50;1.73;;;;;;;-1.53;100.00;101358.53;5039933;28;20029;-72
2023/02/27 05:40:29;;;;;;;4.28;1.77;;;;;;;-1.54;100.00;101362.31;5030628;28;20049;-72
2023/02/27 05:43:03;;;;;;;5.90;2.17;;;;;;;-1.55;100.00;101358.75;5004210;28;20021;-72
2023/02/27 05:45:30;;;;;;;5.70;1.77;;;;;;;-1.54;100.00;101359.59;5020727;28;20045;-72
2023/02/27 05:47:58;;;;;;;7.03;2.20;;;;;;;-1.56;100.00;101354.34;5020646;28;20052;-72
2023/02/27 05:50:25;;;;;;;5.88;2.08;;;;;;;-1.59;100.00;101355.56;5036771;28;20032;-72
2023/02/27 05:52:51;;;;;;;7.60;2.30;;;;;;;-1.61;100.00;101354.91;5039184;28;20075;-72
2023/02/27 05:55:20;;;;;;;4.38;1.98;;;;;;;-1.65;100.00;101359.06;5023008;28;20060;-72
2023/02/27 05:57:58;;;;;;;4.43;2.17;;;;;;;-1.65;100.00;101350.03;5020463;28;20588;-72
2023/02/27 06:00:49;;;;;;;7.43;2.17;;;;;;;-1.74;100.00;101354.75;5003786;28;20071;-71
2023/02/27 06:03:15;;;;;;;4.68;2.22;;;;;;;-1.76;100.00;101359.56;5036363;28;20068;-72
2023/02/27 06:05:41;;;;;;;8.45;2.88;;;;;;;-1.76;100.00;101361.44;5022900;28;20025;-71
2023/02/27 06:08:06;;;;;;;6.13;2.13;;;;;;;-1.78;100.00;101361.66;5021095;28;20025;-72
2023/02/27 06:10:32;;;;;;;6.43;2.20;;;;;;;-1.84;100.00;101356.94;5039388;28;20029;-72
2023/02/27 06:12:57;;;;;;;5.20;2.40;;;;;;;-1.79;100.00;101365.38;5036070;28;20501;-72
2023/02/27 06:15:22;;;;;;;7.15;2.40;;;;;;;-1.79;100.00;101362.66;5004940;28;20048;-72
2023/02/27 06:17:48;;;;;;;7.60;2.72;;;;;;;-1.84;100.00;101365.13;5028495;28;20378;-71
2023/02/27 06:20:14;;;;;;;5.40;2.50;;;;;;;-1.80;100.00;101363.72;5023859;28;20493;-72
2023/02/27 06:22:39;;;;;;;8.23;3.25;;;;;;;-1.79;100.00;101368.13;5011756;28;20025;-72
2023/02/27 06:25:05;;;;;;;6.65;3.00;;;;;;;-1.84;100.00;101370.56;5019357;28;20080;-72
2023/02/27 06:27:31;;;;;;;6.78;2.65;;;;;;;-1.88;100.00;101361.09;5019645;28;20757;-72
2023/02/27 06:29:56;;;;;;;4.97;3.13;;;;;;;-1.92;100.00;101370.66;4986694;28;20065;-72
2023/02/27 06:32:24;;;;;;;4.78;2.67;;;;;;;-1.91;100.00;101362.31;4998250;28;20025;-72
2023/02/27 06:34:50;;;;;;;7.63;3.15;;;;;;;-1.92;100.00;101359.78;5017953;28;20114;-72
2023/02/27 06:37:15;;;;;;;7.55;3.33;;;;;;;-1.90;100.00;101366.72;5031428;28;20088;-72
2023/02/27 06:39:41;;;;;;;9.73;3.38;;;;;;;-1.91;100.00;101362.31;5018781;28;20033;-72
2023/02/27 06:42:06;;;;;;;11.60;3.80;;;;;;;-1.88;100.00;101369.28;5008784;28;20030;-72
2023/02/27 06:44:31;;;;;;;8.00;3.22;;;;;;;-1.87;100.00;101376.38;5019338;28;20030;-72
2023/02/27 06:46:57;;;;;;;8.98;3.72;;;;;;;-1.88;100.00;101377.44;5019155;28;20025;-71
2023/02/27 06:49:22;;;;;;;9.05;3.65;;;;;;;-1.88;100.00;101386.44;5035421;28;20037;-72
2023/02/27 06:51:48;;;;;;;7.30;3.70;;;;;;;-1.88;100.00;101388.31;5011463;28;20029;-71
2023/02/27 06:54:13;;;;;;;7.45;4.05;;;;;;;-1.87;100.00;101395.44;5037313;28;20025;-72
2023/02/27 06:56:39;;;;;;;9.77;3.95;;;;;;;-1.86;100.00;101394.44;5026552;28;20026;-72
2023/02/27 06:59:04;;;;;;;10.68;4.38;;;;;;;-1.87;100.00;101395.44;5002570;28;20021;-72
2023/02/27 07:01:30;;;;;;;8.88;3.88;;;;;;;-1.88;100.00;101404.66;5011432;28;20037;-71
2023/02/27 07:03:55;;;;;;;9.52;4.00;;;;;;;-1.84;100.00;101405.97;5030903;28;20066;-71
2023/02/27 07:06:21;;;;;;;8.52;3.80;;;;;;;-1.85;100.00;101404.28;5018809;28;20036;-72
2023/02/27 07:08:46;;;;;;;8.77;4.15;;;;;;;-1.83;100.00;101407.66;5037287;28;20025;-72
2023/02/27 07:11:12;;;;;;;6.82;4.30;;;;;;;-1.83;100.00;101402.22;5054466;28;20060;-72
2023/02/27 07:13:37;;;;;;;9.00;4.30;;;;;;;-1.78;100.00;101397.06;5035568;28;20021;-72
2023/02/27 07:16:03;;;;;;;7.38;3.97;;;;;;;-1.74;100.00;101395.63;5028350;28;20028;-72
2023/02/27 07:18:28;;;;;;;9.15;4.28;;;;;;;-1.72;100.00;101407.19;5021861;28;20104;-71
2023/02/27 07:20:54;;;;;;;6.90;3.95;;;;;;;-1.67;100.00;101412.91;5018571;28;20033;-72
2023/02/27 07:23:20;;;;;;;8.85;4.30;;;;;;;-1.65;100.00;101420.84;5015026;28;20037;-72
2023/02/27 07:25:46;;;;;;;9.52;4.05;;;;;;;-1.60;100.00;101413.81;5008951;28;20128;-72
2023/02/27 07:28:12;;;;;;;11.25;4.13;;;;;;;-1.52;100.00;101409.28;5015176;28;20148;-72
2023/02/27 07:30:38;;;;;;;9.85;4.22;;;;;;;-1.49;100.00;101404.28;5043356;28;20041;-72
2023/02/27 07:33:03;;;;;;;13.25;4.10;;;;;;;-1.46;100.00;101405.78;5035434;28;20063;-72
2023/02/27 07:35:29;;;;;;;11.10;4.30;;;;;;;-1.37;100.00;101419.06;5027824;28;20108;-72
2023/02/27 07:37:54;;;;;;;8.38;3.67;;;;;;;-1.34;100.00;101412.41;5014779;28;20030;-72
2023/02/27 07:40:20;;;;;;;10.23;3.90;;;;;;;-1.26;100.00;101414.16;5028181;28;21347;-72
2023/02/27 07:42:49;;;;;;;8.60;3.95;;;;;;;-1.25;100.00;101411.25;5021307;28;20026;-72
2023/02/27 07:45:17;;;;;;;11.63;4.88;;;;;;;-1.16;100.00;101418.25;5003155;28;20128;-72
2023/02/27 07:47:43;;;;;;;7.82;3.50;;;;;;;-1.03;100.00;101422.13;5018622;28;20048;-71
2023/02/27 07:50:12;;;;;;;10.70;4.20;;;;;;;-0.99;100.00;101426.19;5029687;28;20029;-72
2023/02/27 07:52:39;;;;;;;7.60;3.60;;;;;;;-0.94;100.00;101419.09;5021956;28;20028;-72
2023/02/27 07:55:05;;;;;;;9.25;3.80;;;;;;;-0.87;100.00;101418.31;5037793;28;20025;-72
2023/02/27 07:57:31;;;;;;;6.70;4.05;;;;;;;-0.87;100.00;101427.34;5018667;28;20433;-72
2023/02/27 07:59:57;;;;;;;8.48;4.07;;;;;;;-0.79;100.00;101427.19;5017825;28;20041;-72
2023/02/27 08:02:22;;;;;;;7.40;3.92;;;;;;;-0.72;100.00;101422.66;5033768;28;20561;-72
2023/02/27 08:04:48;;;;;;;8.07;3.63;;;;;;;-0.66;100.00;101425.63;5014075;28;20021;-72
2023/02/27 08:07:13;;;;;;;7.88;3.67;;;;;;;-0.57;100.00;101427.16;5035724;28;20113;-72
2023/02/27 08:09:39;;;;;;;7.55;3.55;;;;;;;-0.49;100.00;101433.31;5026694;28;20040;-72
2023/02/27 08:12:04;;;;;;;11.75;3.88;;;;;;;-0.41;100.00;101440.50;5053383;28;20083;-72
2023/02/27 08:14:30;;;;;;;7.70;3.88;;;;;;;-0.38;100.00;101445.56;5041372;28;20513;-72
2023/02/27 08:16:55;;;;;;;9.05;3.53;;;;;;;-0.33;100.00;101453.19;5047254;28;20029;-72
2023/02/27 08:19:21;;;;;;;10.52;3.67;;;;;;;-0.25;100.00;101440.22;5027952;28;20033;-72
2023/02/27 08:21:46;;;;;;;7.22;3.47;;;;;;;-0.20;100.00;101438.75;5020194;28;20038;-72
2023/02/27 08:24:11;;;;;;;9.65;3.85;;;;;;;-0.17;100.00;101436.47;5017117;28;20490;-72
2023/02/27 08:26:37;;;;;;;7.15;3.40;;;;;;;-0.08;100.00;101446.19;5001110;28;20040;-72
2023/02/27 08:29:03;;;;;;;8.77;3.65;;;;;;;-0.03;100.00;101445.56;5008528;28;20478;-73
2023/02/27 08:31:28;;;;;;;7.15;3.25;;;;;;;0.08;100.00;101447.72;5009849;28;20033;-72
2023/02/27 08:33:54;;;;;;;5.72;3.28;;;;;;;0.11;100.00;101438.28;5008501;28;20036;-72
2023/02/27 08:36:19;;;;;;;8.23;3.10;;;;;;;0.18;100.00;101437.28;5038006;28;20099;-72
2023/02/27 08:38:45;;;;;;;5.35;3.20;;;;;;;0.26;100.00;101443.66;5020450;28;20397;-72
2023/02/27 08:41:10;;;;;;;8.38;2.90;;;;;;;0.37;100.00;101441.16;5016842;28;20060;-73
2023/02/27 08:43:35;;;;;;;7.60;3.70;;;;;;;0.38;100.00;101442.00;5020575;28;20033;-72
2023/02/27 08:46:01;;;;;;;7.63;3.30;;;;;;;0.43;100.00;101439.50;5017189;28;20064;-73
2023/02/27 08:48:26;;;;;;;6.95;3.25;;;;;;;0.51;100.00;101442.06;5009466;28;20045;-73
2023/02/27 08:50:52;;;;;;;8.60;3.38;;;;;;;0.54;100.00;101449.84;5051486;28;20029;-72
2023/02/27 08:53:17;;;;;;;4.93;2.97;;;;;;;0.71;99.35;101454.94;5019564;28;20041;-74
2023/02/27 08:55:43;;;;;;;8.25;3.38;;;;;;;0.69;96.95;101448.84;5002544;28;20021;-72
2023/02/27 08:58:09;;;;;;;9.88;3.58;;;;;;;0.71;93.73;101449.47;5013145;28;20485;-72
2023/02/27 09:00:35;;;;;;;5.32;2.95;;;;;;;0.81;95.48;101455.41;5002357;28;20032;-72
2023/02/27 09:03:00;;;;;;;4.88;2.80;;;;;;;0.89;88.72;101457.94;5008949;28;20532;-72
2023/02/27 09:05:26;;;;;;;6.07;3.10;;;;;;;0.99;91.91;101452.91;5033514;28;20437;-72
2023/02/27 09:07:52;;;;;;;4.93;3.10;;;;;;;1.06;86.84;101459.25;5025583;28;20026;-72
2023/02/27 09:10:17;;;;;;;12.38;4.03;;;;;;;1.15;87.35;101467.25;5051390;28;20064;-72
2023/02/27 09:12:43;;;;;;;9.20;2.90;;;;;;;1.26;82.70;101444.75;5008467;28;20039;-73
2023/02/27 09:15:10;;;;;;;5.25;2.83;;;;;;;1.31;86.86;101453.16;5020102;28;20033;-73
2023/02/27 09:17:35;;;;;;;4.65;2.60;;;;;;;1.36;83.89;101449.78;5027739;28;20048;-72
2023/02/27 09:20:03;;;;;;;5.43;2.72;;;;;;;1.35;85.27;101451.69;5015955;28;20037;-73
2023/02/27 09:22:28;;;;;;;5.63;2.80;;;;;;;1.44;83.90;101461.38;5027589;28;20030;-73
2023/02/27 09:24:54;;;;;;;6.15;2.47;;;;;;;1.50;79.15;101455.03;5000519;28;20025;-73
2023/02/27 09:27:20;;;;;;;6.28;2.60;;;;;;;1.51;77.75;101462.22;5035151;28;20036;-73
2023/02/27 09:29:45;;;;;;;9.82;3.65;;;;;;;1.63;77.17;101483.50;5020613;28;20029;-73
2023/02/27 09:32:11;;;;;;;8.93;3.35;;;;;;;1.71;71.83;101469.59;5047072;28;20029;-73
2023/02/27 09:34:36;;;;;;;7.70;3.60;;;;;;;1.78;75.20;101464.94;5023946;28;20037;-74
2023/02/27 09:37:02;;;;;;;8.00;3.42;;;;;;;1.75;71.58;101476.31;5020777;28;20493;-72
2023/02/27 09:39:28;;;;;;;9.15;3.78;;;;;;;1.72;70.84;101484.94;5009091;28;20048;-74
2023/02/27 09:42:15;;;;;;;4.63;2.80;;;;;;;1.86;70.21;101474.81;5010166;28;20030;-73
2023/02/27 09:44:57;;;;;;;5.10;2.95;;;;;;;1.82;69.41;101477.16;5025835;28;20044;-73
2023/02/27 09:47:26;;;;;;;5.60;2.67;;;;;;;1.88;69.88;101491.91;5041365;28;20065;-73
2023/02/27 09:49:56;;;;;;;4.15;2.58;;;;;;;1.97;68.20;101493.34;5020544;28;20393;-73
2023/02/27 09:52:22;;;;;;;4.50;2.60;;;;;;;1.99;67.17;101497.56;5006349;28;20021;-74
2023/02/27 09:54:47;;;;;;;5.15;2.20;;;;;;;2.05;64.88;101486.81;5011665;28;20060;-73
2023/02/27 09:58:06;;;;;;;5.15;2.45;;;;;;;2.17;66.18;101483.22;5019733;28;20021;-73
2023/02/27 10:00:52;;;;;;;5.75;2.42;;;;;;;2.16;66.58;101478.78;5034896;28;20080;-73
2023/02/27 10:03:25;;;;;;;4.53;2.40;;;;;;;2.20;64.71;101491.00;5031715;28;20041;-73
2023/02/27 10:06:08;;;;;;;5.22;2.78;;;;;;;2.33;65.00;101486.53;5024581;28;20039;-73
2023/02/27 10:08:38;;;;;;;6.13;2.40;;;;;;;2.39;63.74;101493.88;5049520;28;20962;-73
2023/02/27 10:11:07;;;;;;;4.68;2.47;;;;;;;2.47;63.04;101489.00;4998117;28;20028;-73
2023/02/27 10:13:49;;;;;;;5.03;2.30;;;;;;;2.55;63.20;101484.34;5019148;28;20153;-73
2023/02/27 10:16:17;;;;;;;4.40;2.65;;;;;;;2.51;61.46;101488.56;5031706;28;20408;-73
2023/02/27 10:18:52;;;;;;;3.33;2.13;;;;;;;2.50;61.48;101490.47;5018098;28;20025;-74
2023/02/27 10:21:20;;;;;;;6.95;2.20;;;;;;;2.49;61.05;101496.19;5030010;28;20030;-73
2023/02/27 10:24:04;;;;;;;3.15;2.00;;;;;;;2.52;61.00;101495.75;5019869;28;20038;-73
2023/02/27 10:26:32;;;;;;;4.68;3.00;;;;;;;2.62;62.29;101493.41;5018043;28;20119;-73
2023/02/27 10:28:58;;;;;;;5.70;2.63;;;;;;;2.70;62.99;101498.59;5030009;28;20065;-73
2023/02/27 10:31:26;;;;;;;5.18;2.17;;;;;;;2.72;60.25;101503.91;5022384;28;20036;-74
2023/02/27 10:33:51;;;;;;;4.63;2.10;;;;;;;2.75;60.28;101508.94;4996402;28;20055;-73
2023/02/27 10:36:17;;;;;;;3.13;2.13;;;;;;;2.70;60.57;101504.09;5032533;28;20035;-73
2023/02/27 10:38:45;;;;;;;4.38;2.08;;;;;;;2.86;58.39;101498.13;5024339;28;20033;-73
2023/02/27 10:41:11;;;;;;;3.20;1.90;;;;;;;2.82;59.29;101485.06;5025318;28;20049;-74
2023/02/27 10:43:37;;;;;;;4.35;2.47;;;;;;;2.86;57.72;101478.91;5019345;28;20044;-73
2023/02/27 10:46:09;;;;;;;3.42;1.95;;;;;;;2.94;59.79;101486.06;5019876;28;20025;-73
2023/02/27 10:48:34;;;;;;;3.80;1.88;;;;;;;2.97;59.37;101484.78;5028410;28;20030;-74
2023/02/27 10:51:19;;;;;;;4.05;1.67;;;;;;;2.95;59.05;101489.63;5028958;28;20036;-73
2023/02/27 10:53:44;;;;;;;3.65;2.00;;;;;;;3.01;59.20;101483.25;5032344;28;20036;-73
2023/02/27 10:56:15;;;;;;;4.18;2.00;;;;;;;3.00;58.60;101490.66;5031279;28;20512;-75
2023/02/27 10:58:40;;;;;;;7.63;1.60;;;;;;;2.98;57.66;101480.94;5002878;28;20097;-73
2023/02/27 11:01:08;;;;;;;5.75;2.40;;;;;;;3.09;58.91;101472.88;5035461;28;20029;-73
2023/02/27 11:03:38;;;;;;;6.47;2.20;;;;;;;3.16;58.93;101491.22;5016533;28;20041;-74
2023/02/27 11:06:26;;;;;;;7.15;1.90;;;;;;;3.09;57.28;101477.50;5019022;28;20030;-73
2023/02/27 11:09:11;;;;;;;4.50;1.80;;;;;;;3.13;56.06;101476.03;5004988;28;20561;-73
2023/02/27 11:11:36;;;;;;;4.93;2.08;;;;;;;3.19;57.04;101469.63;5036583;28;20557;-73
2023/02/27 11:14:25;;;;;;;3.30;1.80;;;;;;;3.29;56.19;101480.97;5010510;28;20025;-73
2023/02/27 11:16:53;;;;;;;5.05;2.08;;;;;;;3.24;56.21;101458.00;5038459;28;20126;-73
2023/02/27 11:19:33;;;;;;;5.72;2.05;;;;;;;3.31;55.23;101467.84;5028221;28;20116;-73
2023/02/27 11:22:00;;;;;;;4.65;1.92;;;;;;;3.32;55.79;101453.06;5017742;28;20507;-73
2023/02/27 11:24:26;;;;;;;3.33;1.98;;;;;;;3.39;57.21;101455.75;5046909;28;20021;-74
2023/02/27 11:26:56;;;;;;;4.53;2.00;;;;;;;3.44;57.24;101447.69;5021714;28;20114;-73
2023/02/27 11:29:21;;;;;;;7.72;2.33;;;;;;;3.44;56.51;101455.09;5018545;28;20025;-75
2023/02/27 11:31:58;;;;;;;3.85;1.95;;;;;;;3.44;57.06;101444.13;5025189;28;20481;-73
2023/02/27 11:34:25;;;;;;;3.85;2.28;;;;;;;3.53;56.54;101440.84;5025374;28;20033;-73
2023/02/27 11:36:53;;;;;;;3.55;2.20;;;;;;;3.57;56.36;101446.75;5034715;28;20033;-73